createdAt,value
2022-10-16T00:00:28.602Z,54.17
2022-10-16T00:02:30.646Z,54.16
2022-10-16T00:04:32.953Z,54.17
2022-10-16T00:06:34.995Z,54.26
2022-10-16T00:08:37.885Z,54.41
2022-10-16T00:10:41.235Z,54.25
2022-10-16T00:12:43.442Z,54.17
2022-10-16T00:14:45.368Z,54.21
2022-10-16T00:16:47.372Z,54.06
2022-10-16T00:18:49.398Z,54.32
2022-10-16T00:20:52.037Z,54.27
2022-10-16T00:22:54.599Z,54.33
2022-10-16T00:24:57.141Z,54.12
2022-10-16T00:26:59.156Z,54.28
2022-10-16T00:29:01.805Z,54.04
2022-10-16T00:31:13.847Z,54.89
2022-10-16T00:33:15.972Z,55.33
2022-10-16T00:35:18.101Z,55.03
2022-10-16T00:37:20.125Z,55.46
2022-10-16T00:39:22.727Z,55.22
2022-10-16T00:41:28.275Z,56.08
2022-10-16T00:43:45.344Z,56.39
2022-10-16T00:45:47.296Z,56.09
2022-10-16T00:47:52.648Z,55.81
2022-10-16T00:50:01.154Z,56.28
2022-10-16T00:52:03.798Z,55.64
2022-10-16T00:54:16.456Z,56.54
2022-10-16T00:56:19.375Z,55.46
2022-10-16T00:58:22.251Z,55.49
2022-10-16T01:00:27.482Z,55.37
2022-10-16T01:02:29.546Z,55.04
2022-10-16T01:04:36.565Z,55.32
2022-10-16T01:06:50.422Z,55.46
2022-10-16T01:09:01.817Z,55.78
2022-10-16T01:11:23.108Z,55.27
2022-10-16T01:13:32.953Z,55.14
2022-10-16T01:15:50.889Z,55.60
2022-10-16T01:18:02.561Z,55.12
2022-10-16T01:20:19.334Z,55.18
2022-10-16T01:22:24.414Z,54.86
2022-10-16T01:24:38.789Z,55.50
2022-10-16T01:27:05.349Z,54.95
2022-10-16T01:29:10.475Z,55.06
2022-10-16T01:31:18.439Z,55.69
2022-10-16T01:33:34.101Z,55.52
2022-10-16T01:35:47.639Z,55.82
2022-10-16T01:37:49.642Z,55.17
2022-10-16T01:39:55.966Z,56.80
2022-10-16T01:42:18.736Z,56.69
2022-10-16T01:44:29.577Z,56.65
2022-10-16T01:46:33.485Z,56.43
2022-10-16T01:48:36.669Z,56.13
2022-10-16T01:50:42.827Z,57.40
2022-10-16T01:52:47.903Z,58.10
2022-10-16T01:54:53.884Z,58.70
2022-10-16T01:56:57.874Z,57.72
2022-10-16T01:59:07.216Z,57.95
2022-10-16T02:01:17.777Z,57.46
2022-10-16T02:03:21.144Z,57.30
2022-10-16T02:05:35.226Z,57.36
2022-10-16T02:07:37.629Z,56.83
2022-10-16T02:09:40.225Z,56.59
2022-10-16T02:11:42.191Z,56.60
2022-10-16T02:13:56.671Z,56.92
2022-10-16T02:15:58.650Z,56.90
2022-10-16T02:18:01.287Z,57.50
2022-10-16T02:20:04.482Z,57.69
2022-10-16T02:22:09.546Z,58.67
2022-10-16T02:24:45.522Z,58.58
2022-10-16T02:26:59.143Z,58.22
2022-10-16T02:29:06.832Z,57.99
2022-10-16T02:31:13.140Z,57.32
2022-10-16T02:33:17.528Z,57.22
2022-10-16T02:35:22.380Z,57.69
2022-10-16T02:37:26.101Z,57.32
2022-10-16T02:39:31.005Z,57.21
2022-10-16T02:41:34.053Z,56.83
2022-10-16T02:43:36.252Z,56.94
2022-10-16T02:45:38.263Z,58.11
2022-10-16T02:47:42.617Z,58.32
2022-10-16T02:49:45.080Z,58.46
2022-10-16T02:51:46.994Z,58.21
2022-10-16T02:53:48.931Z,58.02
2022-10-16T02:55:51.057Z,58.03
2022-10-16T02:57:53.748Z,58.15
2022-10-16T02:59:55.779Z,58.28
2022-10-16T03:01:57.814Z,58.01
2022-10-16T03:03:59.716Z,58.94
2022-10-16T03:06:01.860Z,58.99
2022-10-16T03:08:04.557Z,59.20
2022-10-16T03:10:07.192Z,59.96
2022-10-16T03:12:09.302Z,60.09
2022-10-16T03:14:11.300Z,59.61
2022-10-16T03:16:13.238Z,59.35
2022-10-16T03:18:15.294Z,59.42
2022-10-16T03:20:17.491Z,59.62
2022-10-16T03:22:19.400Z,59.52
2022-10-16T03:24:21.222Z,59.29
2022-10-16T03:26:23.315Z,59.61
2022-10-16T03:28:25.345Z,59.90
2022-10-16T03:30:27.430Z,59.42
2022-10-16T03:32:29.767Z,59.69
2022-10-16T03:34:31.974Z,59.29
2022-10-16T03:36:34.718Z,59.75
2022-10-16T03:38:36.675Z,59.80
2022-10-16T03:40:38.649Z,59.60
2022-10-16T03:42:40.643Z,60.15
2022-10-16T03:44:42.703Z,60.32
2022-10-16T03:46:45.104Z,60.41
2022-10-16T03:48:47.118Z,60.67
2022-10-16T03:50:52.852Z,60.86
2022-10-16T03:52:55.007Z,60.47
2022-10-16T03:54:57.124Z,60.79
2022-10-16T03:56:59.394Z,60.72
2022-10-16T03:59:01.637Z,60.56
2022-10-16T04:01:06.961Z,60.34
2022-10-16T04:03:09.027Z,60.18
2022-10-16T04:05:11.172Z,59.64
2022-10-16T04:07:13.127Z,59.74
2022-10-16T04:09:15.490Z,59.17
2022-10-16T04:11:17.602Z,58.93
2022-10-16T04:15:26.995Z,58.78
2022-10-16T04:17:29.221Z,59.02
2022-10-16T04:19:31.208Z,59.20
2022-10-16T04:21:33.379Z,59.80
2022-10-16T04:23:35.595Z,59.84
2022-10-16T04:25:37.956Z,59.69
2022-10-16T04:27:42.282Z,59.40
2022-10-16T04:29:47.410Z,59.75
2022-10-16T04:31:49.425Z,59.43
2022-10-16T04:33:51.487Z,59.22
2022-10-16T04:36:00.857Z,59.09
2022-10-16T04:38:02.956Z,58.70
2022-10-16T04:40:06.019Z,58.76
2022-10-16T04:42:08.304Z,58.89
2022-10-16T04:44:10.782Z,59.01
2022-10-16T04:46:14.137Z,59.22
2022-10-16T04:48:16.141Z,59.85
2022-10-16T04:50:18.266Z,59.51
2022-10-16T04:52:37.134Z,60.65
2022-10-16T04:54:39.455Z,59.86
2022-10-16T04:56:47.901Z,60.14
2022-10-16T04:58:49.991Z,60.54
2022-10-16T05:00:51.892Z,60.92
2022-10-16T05:02:54.147Z,60.71
2022-10-16T05:04:56.215Z,60.58
2022-10-16T05:06:58.263Z,60.78
2022-10-16T05:09:00.331Z,60.69
2022-10-16T05:11:02.970Z,60.39
2022-10-16T05:13:05.209Z,60.32
2022-10-16T05:15:07.801Z,60.01
2022-10-16T05:17:09.936Z,59.84
2022-10-16T05:19:28.553Z,60.53
2022-10-16T05:21:31.544Z,60.05
2022-10-16T05:23:34.092Z,60.31
2022-10-16T05:25:36.059Z,60.81
2022-10-16T05:27:38.136Z,60.46
2022-10-16T05:29:40.071Z,60.45
2022-10-16T05:31:42.127Z,60.44
2022-10-16T05:33:45.300Z,60.66
2022-10-16T05:35:47.604Z,60.76
2022-10-16T05:37:49.679Z,60.48
2022-10-16T05:39:52.521Z,60.35
2022-10-16T05:41:54.549Z,60.49
2022-10-16T05:43:56.555Z,60.55
2022-10-16T05:46:01.242Z,60.75
2022-10-16T05:48:03.077Z,60.25
2022-10-16T05:50:05.529Z,60.17
2022-10-16T05:52:07.544Z,60.06
2022-10-16T05:54:10.032Z,59.89
2022-10-16T05:56:13.846Z,60.45
2022-10-16T05:58:15.959Z,60.50
2022-10-16T06:00:18.239Z,60.27
2022-10-16T06:02:20.246Z,60.22
2022-10-16T06:04:22.199Z,60.02
2022-10-16T06:06:27.024Z,60.18
2022-10-16T06:08:29.021Z,59.95
2022-10-16T06:10:30.921Z,60.11
2022-10-16T06:12:32.946Z,59.93
2022-10-16T06:14:34.884Z,59.40
2022-10-16T06:16:38.169Z,59.34
2022-10-16T06:18:40.512Z,59.05
2022-10-16T06:20:42.452Z,59.35
2022-10-16T06:22:44.390Z,59.26
2022-10-16T06:24:47.630Z,59.00
2022-10-16T06:26:49.501Z,58.74
2022-10-16T06:28:51.583Z,58.62
2022-10-16T06:31:04.121Z,58.67
2022-10-16T06:33:09.160Z,58.59
2022-10-16T06:35:10.939Z,58.59
2022-10-16T06:37:12.779Z,58.38
2022-10-16T06:39:14.553Z,57.63
2022-10-16T06:41:19.390Z,58.26
2022-10-16T06:43:21.174Z,57.85
2022-10-16T06:45:23.233Z,57.82
2022-10-16T06:47:25.112Z,57.64
2022-10-16T06:49:27.023Z,57.36
2022-10-16T06:51:29.061Z,57.68
2022-10-16T06:53:40.022Z,57.63
2022-10-16T06:55:46.395Z,57.09
2022-10-16T06:57:49.329Z,57.31
2022-10-16T06:59:55.223Z,57.32
2022-10-16T07:01:57.419Z,57.65
2022-10-16T07:04:02.417Z,56.93
2022-10-16T07:06:06.007Z,55.67
2022-10-16T07:08:07.984Z,55.77
2022-10-16T07:10:10.256Z,54.34
2022-10-16T07:12:12.299Z,55.29
2022-10-16T07:14:18.414Z,55.14
2022-10-16T07:16:22.548Z,55.27
2022-10-16T07:18:27.673Z,55.02
2022-10-16T07:20:29.892Z,55.12
2022-10-16T07:22:32.079Z,54.68
2022-10-16T07:24:34.328Z,54.56
2022-10-16T07:26:37.832Z,54.40
2022-10-16T07:28:40.976Z,54.71
2022-10-16T07:30:43.161Z,54.80
2022-10-16T07:32:45.454Z,54.81
2022-10-16T07:34:47.630Z,54.63
2022-10-16T07:36:52.984Z,54.57
2022-10-16T07:38:58.672Z,54.90
2022-10-16T07:41:05.991Z,54.53
2022-10-16T07:43:07.905Z,54.91
2022-10-16T07:45:10.305Z,54.95
2022-10-16T07:47:12.238Z,54.50
2022-10-16T07:49:14.842Z,54.22
2022-10-16T07:51:20.303Z,54.11
2022-10-16T07:53:24.806Z,54.58
2022-10-16T07:55:29.126Z,54.55
2022-10-16T07:57:31.160Z,54.32
2022-10-16T07:59:33.441Z,54.11
2022-10-16T08:01:35.899Z,54.16
2022-10-16T08:03:38.172Z,54.27
2022-10-16T08:05:40.378Z,54.13
2022-10-16T08:07:42.408Z,54.26
2022-10-16T08:09:44.423Z,54.18
2022-10-16T08:11:46.979Z,54.09
2022-10-16T08:13:49.395Z,53.53
2022-10-16T08:15:51.533Z,53.82
2022-10-16T08:18:01.843Z,53.44
2022-10-16T08:20:04.270Z,53.78
2022-10-16T08:22:06.798Z,53.71
2022-10-16T08:24:09.825Z,53.75
2022-10-16T08:26:13.088Z,53.54
2022-10-16T08:28:15.149Z,53.45
2022-10-16T08:30:18.684Z,53.06
2022-10-16T08:32:23.966Z,53.36
2022-10-16T08:34:29.008Z,53.14
2022-10-16T08:36:33.917Z,52.86
2022-10-16T08:38:36.455Z,52.36
2022-10-16T08:40:39.066Z,51.73
2022-10-16T08:42:41.036Z,51.67
2022-10-16T08:44:45.581Z,51.76
2022-10-16T08:47:23.349Z,51.64
2022-10-16T08:49:25.829Z,52.36
2022-10-16T08:51:32.235Z,52.11
2022-10-16T08:53:50.961Z,50.22
2022-10-16T08:55:54.425Z,51.13
2022-10-16T08:57:57.035Z,51.52
2022-10-16T09:00:10.060Z,51.09
2022-10-16T09:02:25.020Z,49.72
2022-10-16T09:04:51.793Z,49.86
2022-10-16T09:07:00.556Z,50.05
2022-10-16T09:09:22.488Z,49.78
2022-10-16T09:11:51.741Z,49.58
2022-10-16T09:14:37.311Z,48.35
2022-10-16T09:16:48.036Z,47.65
2022-10-16T09:19:13.016Z,46.67
2022-10-16T09:21:18.372Z,47.33
2022-10-16T09:23:23.547Z,47.99
2022-10-16T09:25:26.333Z,48.17
2022-10-16T09:27:33.695Z,47.60
2022-10-16T09:29:37.217Z,48.39
2022-10-16T09:31:39.458Z,48.12
2022-10-16T09:33:42.133Z,46.10
2022-10-16T09:35:55.943Z,44.05
2022-10-16T09:37:58.164Z,45.85
2022-10-16T09:40:05.085Z,45.64
2022-10-16T09:42:15.289Z,46.13
2022-10-16T09:44:30.990Z,45.24
2022-10-16T09:46:38.842Z,46.14
2022-10-16T09:48:46.164Z,45.55
2022-10-16T09:53:11.877Z,46.05
2022-10-16T09:55:19.462Z,45.25
2022-10-16T09:57:23.075Z,45.64
2022-10-16T09:59:27.374Z,45.88
2022-10-16T10:01:54.117Z,46.25
2022-10-16T10:04:02.294Z,46.90
2022-10-16T10:06:32.429Z,46.40
2022-10-16T10:08:34.459Z,46.17
2022-10-16T10:10:43.747Z,44.67
2022-10-16T10:12:46.688Z,45.63
2022-10-16T10:14:51.717Z,45.58
2022-10-16T10:17:05.892Z,44.50
2022-10-16T10:19:18.929Z,45.17
2022-10-16T10:21:20.978Z,45.79
2022-10-16T10:23:34.554Z,43.10
2022-10-16T10:26:05.614Z,44.15
2022-10-16T10:28:36.223Z,42.42
2022-10-16T10:31:00.018Z,43.22
2022-10-16T10:33:26.079Z,43.31
2022-10-16T10:36:03.528Z,42.80
2022-10-16T10:38:13.827Z,44.09
2022-10-16T10:40:40.997Z,43.50
2022-10-16T10:43:08.655Z,43.49
2022-10-16T10:45:19.685Z,44.11
2022-10-16T10:47:58.136Z,44.31
2022-10-16T10:50:24.111Z,43.69
2022-10-16T10:53:05.502Z,42.10
2022-10-16T10:55:25.070Z,40.97
2022-10-16T10:57:58.425Z,40.88
2022-10-16T11:00:10.384Z,42.10
2022-10-16T11:02:23.247Z,42.21
2022-10-16T11:04:31.167Z,43.19
2022-10-16T11:06:41.210Z,42.83
2022-10-16T11:08:57.669Z,42.10
2022-10-16T11:11:24.039Z,42.25
2022-10-16T11:13:45.061Z,41.18
2022-10-16T11:18:22.586Z,41.89
2022-10-16T11:20:27.516Z,42.95
2022-10-16T11:22:43.113Z,42.29
2022-10-16T11:25:15.432Z,42.40
2022-10-16T11:27:22.887Z,41.52
2022-10-16T11:29:30.263Z,42.39
2022-10-16T11:31:40.044Z,41.31
2022-10-16T11:36:29.685Z,41.67
2022-10-16T11:38:50.487Z,41.00
2022-10-16T11:40:58.881Z,42.08
2022-10-16T11:43:16.109Z,41.80
2022-10-16T11:45:43.700Z,42.09
2022-10-16T11:48:05.431Z,41.36
2022-10-16T11:50:18.854Z,41.48
2022-10-16T11:52:39.381Z,41.84
2022-10-16T11:54:47.188Z,41.00
2022-10-16T11:56:54.433Z,41.00
2022-10-16T12:06:44.910Z,40.46
2022-10-16T12:08:48.169Z,41.46
2022-10-16T12:10:50.299Z,40.96
2022-10-16T12:12:52.663Z,40.34
2022-10-16T12:15:17.621Z,40.38
2022-10-16T12:17:36.206Z,41.40
2022-10-16T12:19:38.683Z,42.03
2022-10-16T12:21:40.890Z,41.81
2022-10-16T12:23:50.360Z,41.21
2022-10-16T12:25:57.529Z,40.37
2022-10-16T12:28:06.035Z,41.36
2022-10-16T12:30:09.323Z,41.41
2022-10-16T12:32:48.638Z,39.63
2022-10-16T12:34:51.059Z,40.85
2022-10-16T12:36:55.120Z,40.48
2022-10-16T12:38:57.676Z,40.42
2022-10-16T12:41:13.284Z,40.27
2022-10-16T12:43:23.007Z,39.80
2022-10-16T12:45:33.579Z,40.38
2022-10-16T12:47:35.722Z,40.81
2022-10-16T12:49:40.983Z,40.26
2022-10-16T12:51:43.885Z,40.59
2022-10-16T12:53:45.885Z,40.53
2022-10-16T12:55:56.372Z,40.87
2022-10-16T12:58:19.572Z,40.34
2022-10-16T13:00:46.019Z,40.37
2022-10-16T13:03:12.362Z,40.04
2022-10-16T13:05:30.910Z,39.89
2022-10-16T13:07:42.151Z,40.63
2022-10-16T13:10:07.154Z,39.35
2022-10-16T13:13:11.962Z,39.63
2022-10-16T13:15:45.961Z,40.41
2022-10-16T13:17:50.763Z,40.64
2022-10-16T13:20:13.737Z,40.58
2022-10-16T13:22:30.909Z,40.23
2022-10-16T13:24:41.591Z,40.11
2022-10-16T13:27:04.766Z,40.50
2022-10-16T13:29:06.905Z,40.43
2022-10-16T13:31:26.202Z,40.20
2022-10-16T13:33:33.895Z,40.49
2022-10-16T13:35:37.688Z,40.68
2022-10-16T13:37:39.893Z,40.44
2022-10-16T13:39:41.958Z,40.50
2022-10-16T13:41:44.577Z,40.06
2022-10-16T13:43:54.220Z,40.27
2022-10-16T13:46:17.558Z,40.26
2022-10-16T13:48:19.704Z,40.63
2022-10-16T13:50:21.687Z,40.57
2022-10-16T13:52:24.186Z,40.26
2022-10-16T13:54:29.950Z,40.21
2022-10-16T13:56:34.198Z,40.66
2022-10-16T13:58:36.701Z,40.67
2022-10-16T14:00:41.491Z,40.12
2022-10-16T14:02:43.778Z,40.26
2022-10-16T14:04:47.417Z,39.49
2022-10-16T14:06:52.229Z,39.50
2022-10-16T14:09:30.239Z,39.27
2022-10-16T14:11:32.537Z,39.33
2022-10-16T14:13:46.848Z,39.59
2022-10-16T14:15:52.713Z,39.92
2022-10-16T14:17:55.072Z,40.20
2022-10-16T14:20:02.629Z,39.78
2022-10-16T14:22:39.484Z,39.48
2022-10-16T14:24:41.691Z,40.02
2022-10-16T14:26:50.631Z,39.88
2022-10-16T14:29:13.206Z,40.18
2022-10-16T14:31:24.198Z,39.92
2022-10-16T14:33:30.761Z,39.84
2022-10-16T14:35:40.051Z,40.12
2022-10-16T14:37:41.908Z,40.49
2022-10-16T14:39:43.837Z,40.60
2022-10-16T14:41:49.240Z,40.65
2022-10-16T14:43:57.132Z,40.83
2022-10-16T14:45:59.621Z,41.19
2022-10-16T14:48:32.056Z,40.92
2022-10-16T14:51:01.843Z,40.97
2022-10-16T14:53:13.005Z,41.44
2022-10-16T14:55:15.128Z,41.45
2022-10-16T14:57:23.437Z,41.49
2022-10-16T14:59:31.068Z,41.35
2022-10-16T15:01:32.930Z,41.78
2022-10-16T15:03:34.787Z,41.77
2022-10-16T15:05:36.870Z,41.83
2022-10-16T15:07:38.639Z,41.96
2022-10-16T15:09:43.760Z,42.42
2022-10-16T15:11:47.696Z,42.57
2022-10-16T15:13:49.939Z,42.30
2022-10-16T15:15:51.641Z,42.26
2022-10-16T15:17:57.540Z,42.87
2022-10-16T15:20:00.209Z,42.45
2022-10-16T15:22:02.266Z,42.73
2022-10-16T15:24:04.379Z,43.19
2022-10-16T15:26:06.277Z,43.58
2022-10-16T15:28:08.965Z,43.25
2022-10-16T15:30:11.359Z,43.38
2022-10-16T15:33:03.706Z,43.88
2022-10-16T15:35:05.944Z,43.77
2022-10-16T15:37:07.784Z,43.86
2022-10-16T15:39:18.499Z,43.75
2022-10-16T15:41:20.917Z,43.53
2022-10-16T15:43:22.955Z,43.39
2022-10-16T15:45:24.853Z,43.55
2022-10-16T15:47:26.864Z,43.08
2022-10-16T15:49:28.666Z,43.66
2022-10-16T15:51:30.560Z,42.77
2022-10-16T15:53:32.511Z,43.22
2022-10-16T15:55:35.305Z,43.33
2022-10-16T15:57:39.502Z,43.29
2022-10-16T15:59:41.323Z,43.19
2022-10-16T16:01:43.337Z,43.45
2022-10-16T16:03:45.524Z,43.74
2022-10-16T16:05:48.076Z,43.83
2022-10-16T16:07:51.091Z,43.82
2022-10-16T16:09:53.101Z,43.88
2022-10-16T16:11:55.138Z,43.89
2022-10-16T16:13:57.866Z,43.64
2022-10-16T16:16:00.189Z,43.84
2022-10-16T16:18:03.399Z,43.95
2022-10-16T16:20:06.588Z,44.31
2022-10-16T16:22:10.935Z,43.93
2022-10-16T16:24:15.171Z,44.38
2022-10-16T16:26:27.169Z,44.99
2022-10-16T16:28:29.130Z,44.54
2022-10-16T16:30:31.010Z,44.81
2022-10-16T16:32:33.156Z,44.98
2022-10-16T16:34:35.538Z,44.87
2022-10-16T16:36:37.717Z,44.76
2022-10-16T16:38:39.963Z,45.14
2022-10-16T16:40:41.924Z,45.35
2022-10-16T16:42:43.998Z,45.54
2022-10-16T16:44:46.092Z,45.60
2022-10-16T16:46:48.035Z,45.58
2022-10-16T16:48:54.606Z,45.57
2022-10-16T16:50:57.356Z,46.16
2022-10-16T16:52:59.266Z,46.38
2022-10-16T16:55:03.723Z,47.16
2022-10-16T16:57:05.911Z,47.83
2022-10-16T16:59:07.823Z,48.08
2022-10-16T17:01:26.762Z,47.92
2022-10-16T17:03:30.597Z,47.86
2022-10-16T17:05:32.648Z,47.93
2022-10-16T17:07:35.625Z,47.50
2022-10-16T17:09:37.639Z,47.13
2022-10-16T17:11:42.473Z,47.46
2022-10-16T17:13:44.664Z,47.52
2022-10-16T17:15:48.375Z,48.22
2022-10-16T17:17:50.795Z,47.87
2022-10-16T17:19:53.102Z,47.25
2022-10-16T17:21:55.216Z,47.34
2022-10-16T17:23:57.817Z,47.56
2022-10-16T17:26:08.308Z,47.66
2022-10-16T17:28:11.974Z,47.65
2022-10-16T17:30:13.988Z,47.97
2022-10-16T17:32:15.998Z,47.87
2022-10-16T17:34:18.370Z,48.06
2022-10-16T17:36:21.656Z,48.13
2022-10-16T17:38:23.783Z,48.06
2022-10-16T17:40:26.245Z,47.96
2022-10-16T17:42:28.561Z,47.98
2022-10-16T17:44:31.441Z,47.87
2022-10-16T17:46:37.004Z,47.82
2022-10-16T17:48:45.605Z,47.85
2022-10-16T17:50:47.624Z,48.07
2022-10-16T17:56:44.609Z,47.99
2022-10-16T17:58:52.069Z,48.85
2022-10-16T18:00:53.987Z,48.68
2022-10-16T18:02:55.875Z,48.25
2022-10-16T18:04:57.923Z,48.00
2022-10-16T18:07:00.811Z,48.11
2022-10-16T18:09:04.725Z,48.17
2022-10-16T18:11:06.899Z,48.22
2022-10-16T18:13:08.976Z,48.36
2022-10-16T18:15:11.286Z,48.45
2022-10-16T18:17:13.285Z,48.85
2022-10-16T18:19:15.132Z,48.33
2022-10-16T18:21:19.537Z,48.40
2022-10-16T18:23:21.588Z,48.42
2022-10-16T18:25:23.451Z,48.73
2022-10-16T18:27:25.549Z,48.54
2022-10-16T18:29:27.977Z,48.69
2022-10-16T18:31:31.054Z,48.98
2022-10-16T18:33:33.755Z,48.98
2022-10-16T18:35:36.557Z,49.03
2022-10-16T18:37:38.337Z,49.12
2022-10-16T18:39:40.309Z,48.91
2022-10-16T18:41:47.740Z,49.29
2022-10-16T18:43:49.818Z,48.94
2022-10-16T18:45:59.866Z,49.03
2022-10-16T18:48:02.180Z,49.01
2022-10-16T18:50:07.164Z,49.69
2022-10-16T18:52:12.827Z,49.58
2022-10-16T18:54:14.769Z,49.77
2022-10-16T18:56:18.771Z,49.98
2022-10-16T18:58:20.989Z,50.63
2022-10-16T19:00:23.144Z,50.17
2022-10-16T19:02:24.985Z,50.37
2022-10-16T19:04:26.928Z,50.64
2022-10-16T19:06:29.943Z,50.35
2022-10-16T19:08:33.829Z,50.51
2022-10-16T19:10:38.011Z,50.34
2022-10-16T19:12:41.569Z,50.04
2022-10-16T19:14:43.573Z,50.50
2022-10-16T19:16:45.456Z,50.74
2022-10-16T19:18:48.611Z,50.70
2022-10-16T19:20:50.996Z,50.42
2022-10-16T19:22:58.963Z,50.50
2022-10-16T19:25:01.310Z,50.58
2022-10-16T19:27:03.450Z,50.21
2022-10-16T19:29:07.458Z,50.22
2022-10-16T19:31:19.406Z,50.54
2022-10-16T19:33:21.852Z,50.06
2022-10-16T19:35:23.926Z,50.12
2022-10-16T19:37:27.486Z,50.09
2022-10-16T19:39:29.700Z,50.07
2022-10-16T19:41:37.670Z,50.09
2022-10-16T19:43:40.161Z,49.89
2022-10-16T19:45:42.412Z,50.75
2022-10-16T19:47:46.126Z,51.16
2022-10-16T19:49:50.291Z,51.59
2022-10-16T19:51:54.765Z,51.22
2022-10-16T19:54:02.145Z,51.92
2022-10-16T19:56:13.472Z,53.22
2022-10-16T19:58:15.640Z,52.40
2022-10-16T20:00:18.293Z,51.99
2022-10-16T20:02:20.710Z,51.67
2022-10-16T20:04:22.822Z,51.68
2022-10-16T20:06:25.641Z,51.78
2022-10-16T20:08:27.771Z,51.66
2022-10-16T20:10:32.918Z,51.67
2022-10-16T20:12:34.934Z,51.94
2022-10-16T20:14:37.379Z,52.93
2022-10-16T20:16:40.618Z,52.69
2022-10-16T20:18:42.797Z,53.20
2022-10-16T20:20:52.583Z,53.40
2022-10-16T20:22:54.628Z,53.57
2022-10-16T20:24:56.695Z,53.78
2022-10-16T20:27:00.170Z,54.27
2022-10-16T20:29:03.776Z,54.59
2022-10-16T20:31:13.550Z,54.87
2022-10-16T20:33:16.908Z,54.05
2022-10-16T20:35:18.915Z,54.43
2022-10-16T20:37:21.064Z,55.41
2022-10-16T20:39:23.393Z,54.71
2022-10-16T20:41:25.579Z,54.44
2022-10-16T20:43:27.578Z,54.73
2022-10-16T20:45:30.028Z,54.47
2022-10-16T20:47:32.094Z,54.47
2022-10-16T20:49:40.668Z,54.37
2022-10-16T20:51:44.109Z,54.20
2022-10-16T20:53:48.484Z,54.61
2022-10-16T20:55:50.767Z,54.75
2022-10-16T20:57:53.500Z,55.17
2022-10-16T20:59:55.945Z,55.11
2022-10-16T21:01:58.341Z,55.14
2022-10-16T21:04:02.701Z,55.48
2022-10-16T21:06:07.428Z,55.20
2022-10-16T21:08:09.619Z,55.41
2022-10-16T21:10:12.498Z,55.66
2022-10-16T21:12:14.829Z,55.68
2022-10-16T21:14:17.008Z,54.99
2022-10-16T21:16:19.287Z,54.75
2022-10-16T21:18:21.225Z,54.47
2022-10-16T21:20:23.307Z,54.23
2022-10-16T21:22:30.149Z,54.09
2022-10-16T21:24:32.678Z,53.79
2022-10-16T21:26:34.504Z,53.94
2022-10-16T21:28:36.508Z,53.59
2022-10-16T21:30:38.533Z,53.63
2022-10-16T21:32:40.781Z,53.36
2022-10-16T21:34:43.096Z,53.49
2022-10-16T21:36:45.162Z,53.04
2022-10-16T21:38:48.128Z,52.91
2022-10-16T21:40:51.380Z,52.92
2022-10-16T21:42:53.627Z,53.13
2022-10-16T21:44:55.732Z,53.79
2022-10-16T21:46:57.675Z,54.34
2022-10-16T21:49:02.016Z,54.40
2022-10-16T21:51:04.249Z,54.99
2022-10-16T21:53:06.754Z,54.43
2022-10-16T21:55:09.405Z,54.12
2022-10-16T21:57:11.492Z,53.55
2022-10-16T21:59:14.003Z,53.49
2022-10-16T22:01:19.208Z,53.32
2022-10-16T22:03:21.352Z,53.69
2022-10-16T22:05:23.750Z,53.97
2022-10-16T22:07:25.983Z,53.80
2022-10-16T22:09:28.303Z,53.74
2022-10-16T22:11:39.265Z,54.08
2022-10-16T22:13:42.804Z,53.93
2022-10-16T22:15:52.294Z,53.77
2022-10-16T22:17:54.420Z,53.75
2022-10-16T22:19:56.322Z,53.71
2022-10-16T22:22:00.628Z,53.69
2022-10-16T22:24:03.030Z,53.55
2022-10-16T22:26:11.148Z,53.79
2022-10-16T22:28:13.632Z,53.23
2022-10-16T22:30:15.831Z,53.38
2022-10-16T22:32:18.735Z,53.28
2022-10-16T22:34:20.930Z,53.51
2022-10-16T22:36:23.881Z,53.16
2022-10-16T22:38:25.974Z,53.49
2022-10-16T22:40:27.942Z,53.61
2022-10-16T22:42:29.940Z,53.84
2022-10-16T22:44:32.020Z,54.13
2022-10-16T22:46:33.915Z,54.26
2022-10-16T22:48:36.605Z,54.69
2022-10-16T22:50:38.603Z,55.15
2022-10-16T22:52:40.690Z,54.82
2022-10-16T22:54:43.044Z,54.72
2022-10-16T22:56:45.261Z,55.15
2022-10-16T22:58:47.381Z,54.86
2022-10-16T23:00:50.059Z,54.56
2022-10-16T23:02:52.077Z,55.43
2022-10-16T23:04:54.174Z,55.87
2022-10-16T23:06:56.301Z,56.26
2022-10-16T23:09:01.011Z,55.80
2022-10-16T23:11:09.081Z,55.92
2022-10-16T23:13:12.449Z,56.19
2022-10-16T23:15:14.594Z,55.81
2022-10-16T23:17:16.737Z,55.46
2022-10-16T23:19:18.679Z,55.09
2022-10-16T23:21:23.610Z,55.36
2022-10-16T23:23:25.620Z,55.08
2022-10-16T23:25:27.703Z,55.46
2022-10-16T23:27:32.472Z,55.01
2022-10-16T23:29:34.682Z,54.98
2022-10-16T23:31:36.690Z,55.39
2022-10-16T23:33:39.793Z,55.36
2022-10-16T23:35:41.766Z,54.88
2022-10-16T23:37:44.105Z,54.76
2022-10-16T23:39:46.082Z,54.67
2022-10-16T23:41:48.133Z,54.92
2022-10-16T23:43:51.513Z,54.86
2022-10-16T23:45:53.932Z,55.44
2022-10-16T23:47:56.078Z,55.60
2022-10-16T23:49:58.303Z,55.58
2022-10-16T23:52:01.591Z,55.71
2022-10-16T23:54:04.138Z,55.23
2022-10-16T23:56:06.310Z,54.89
2022-10-16T23:58:08.870Z,54.66
